Ati Airport

FTTI · Batha, 乍得

METAR FTTI · Ati Airport

18 七月 05:00 LT
34m
使用的METAR站距离机场377 km。
罗盘
风向 的 风向 120° Ati Airport 9/27
风: 9 kt, 3 beaufort

8 kt

5 kt
改变
0 ft 1.000 2.000 3.000 4.000 5.000
Cloud Cloud Cloud Cloud
SCT 2.600
Cloud Cloud
FEW 4.000
METAR FTTJ 180400Z 12009KT 6000 -TSRA SCT026 FEW040CB 23/23 Q1012 NOSIG

METAR Ati Airport - FTTI/ATV

Ati Airport是,乍得中的小机场。 该机场位于纬度13,23981和经度18,31568。 该机场有一条跑道: 9/27. 本场的ICAO机场代码为FTTI。 该机场的IATA代码为ATV。 机场在N Djamena FIR中。

该航空气象观测是针对N'Djamena International Airport在2024年7月18日 05:00, 当地时间进行的。

机场观察

风向为120°,速度为9 kt。

可见度为6 km。

有疏云,零星散落的云朵在2.600 ft的高度 和 几云 积雨云在4.000 ft的高度。 没有观察到天花板。

当前天气为光 雷暴 雨。 温度和风寒是23 °C。 露点为23 °C,相对湿度为100%。 海平面上的气压为1012 hPa (QNH)。

白天

今天,太阳从05:28升起,在18:17降落。 这适用于Ati Airport,世界夏令时可能有所不同。 当地时间与世界标准时间之间的时差为+1 小时。 夏令时目前正在进行中。

公司介绍

我们没有关于这个机场的公司信息。

体会

到Vliegles.nl去找飞行课程,跳伞和其他飞行体验。 浏览页面,了解Ati Airport附近所有可用的活动。 你也可以使用搜索功能来寻找你所在地附近的特定飞行课程、跳伞或其他飞行体验。

跑道

Id 标题 侧风 逆风 侧风 %
9/27 088°-268° 5 kt 8 kt 53 %

逆风成分最大的方向会被突出显示,并用于横风计算。 这并不一定意味着这个方向在使用。

乌云

2.600 ft SCT 疏云,零星散落的云朵
4.000 ft FEW 几云 积雨云

温度 & 天气

天气 光 雷暴 雨
温度 23 °C
露点 23 °C
相对湿度 100%
Kp-index 0 (0-9)

白天

日出
05:43 (10m)
中午
12:06
日落
18:28

小工具

你想在你的网站上有一个关于Ati Airport的当前航空天气(METAR)的小部件吗?

显示HTML代码
报告变更